createdAt,value
2023-03-02T08:37:08.280Z,33.34
2023-03-02T08:38:09.346Z,33.24
2023-03-02T08:39:09.449Z,32.73
2023-03-02T08:40:09.494Z,33.15
2023-03-02T08:41:09.574Z,33.05
2023-03-02T08:42:09.701Z,33.36
2023-03-02T08:43:09.771Z,33.66
2023-03-02T08:44:09.809Z,33.44
2023-03-02T08:45:09.884Z,32.92
2023-03-02T08:46:10.013Z,32.70
2023-03-02T08:47:10.047Z,32.18
2023-03-02T08:48:10.104Z,32.17
2023-03-02T08:49:10.202Z,32.15
2023-03-02T08:50:10.256Z,31.75
2023-03-02T08:51:10.349Z,31.24
2023-03-02T08:52:10.436Z,30.76
2023-03-02T08:53:10.478Z,31.58
2023-03-02T08:54:10.558Z,32.01
2023-03-02T08:55:10.746Z,32.64
2023-03-02T08:56:10.712Z,33.12
2023-03-02T08:57:10.846Z,32.10
2023-03-02T08:58:10.882Z,32.49
2023-03-02T08:59:11.001Z,32.07
2023-03-02T09:00:11.066Z,31.55
2023-03-02T09:01:11.236Z,31.45
2023-03-02T09:02:11.262Z,31.35
2023-03-02T09:03:11.334Z,31.45
2023-03-02T09:04:11.476Z,31.45
2023-03-02T09:05:11.510Z,32.08
2023-03-02T09:06:11.596Z,31.96
2023-03-02T09:07:11.669Z,31.75
2023-03-02T09:08:11.712Z,31.22
2023-03-02T09:09:11.798Z,30.41
2023-03-02T09:10:11.850Z,30.91
2023-03-02T09:11:11.910Z,30.70
2023-03-02T09:12:12.008Z,29.69
2023-03-02T09:13:12.069Z,29.78
2023-03-02T09:14:12.125Z,29.78
2023-03-02T09:15:12.197Z,29.46
2023-03-02T09:16:12.350Z,28.75
2023-03-02T09:17:12.422Z,28.85
2023-03-02T09:18:12.467Z,29.46
2023-03-02T09:19:12.546Z,29.97
2023-03-02T09:20:12.590Z,29.66
2023-03-02T09:21:12.674Z,29.35
2023-03-02T09:22:12.766Z,29.65
2023-03-02T09:23:12.839Z,28.86
2023-03-02T09:24:12.896Z,29.66
2023-03-02T09:25:12.972Z,28.85
2023-03-02T09:26:13.035Z,28.52
2023-03-02T09:27:13.138Z,28.52
2023-03-02T09:28:13.207Z,28.50
2023-03-02T09:29:13.286Z,28.55
2023-03-02T09:30:13.393Z,29.03
2023-03-02T09:31:13.444Z,28.92
2023-03-02T09:32:13.642Z,28.75
2023-03-02T09:33:13.713Z,29.25
2023-03-02T09:34:13.632Z,29.14
2023-03-02T09:35:13.715Z,28.73
2023-03-02T09:36:13.806Z,28.22
2023-03-02T09:37:13.918Z,28.41
2023-03-02T09:38:13.996Z,27.99
2023-03-02T09:39:14.083Z,27.97
2023-03-02T09:40:14.153Z,28.17
2023-03-02T09:41:14.254Z,27.97
2023-03-02T09:42:14.329Z,28.29
2023-03-02T09:43:14.441Z,27.78
2023-03-02T09:44:14.508Z,27.78
2023-03-02T09:45:14.607Z,27.46
2023-03-02T09:46:14.735Z,27.86
2023-03-02T09:47:16.508Z,27.36
2023-03-02T09:48:14.832Z,27.15
2023-03-02T09:49:14.928Z,27.04
2023-03-02T09:50:14.972Z,27.14
2023-03-02T09:51:15.934Z,26.83
2023-03-02T09:52:15.130Z,26.83
2023-03-02T09:53:15.208Z,26.03
2023-03-02T09:54:15.287Z,26.32
2023-03-02T09:55:15.367Z,25.92
2023-03-02T09:56:15.409Z,26.75
2023-03-02T09:57:15.534Z,27.27
2023-03-02T09:58:15.587Z,28.33
2023-03-02T09:59:15.681Z,29.25
2023-03-02T10:00:19.506Z,29.66
2023-03-02T10:01:16.811Z,30.08
2023-03-02T10:02:15.931Z,29.77
2023-03-02T10:03:17.617Z,29.25
2023-03-02T10:04:16.266Z,29.13
2023-03-02T10:05:16.149Z,28.60
2023-03-02T10:06:16.192Z,28.39
2023-03-02T10:07:16.321Z,28.17
2023-03-02T10:08:16.431Z,28.28
2023-03-02T10:09:16.460Z,28.28
2023-03-02T10:10:16.621Z,28.17
2023-03-02T10:11:16.641Z,27.76
2023-03-02T10:12:16.718Z,27.95
2023-03-02T10:13:16.808Z,27.95
2023-03-02T10:14:16.844Z,27.55
2023-03-02T10:15:16.928Z,27.76
2023-03-02T10:16:17.085Z,28.26
2023-03-02T10:17:17.070Z,27.47
2023-03-02T10:18:17.129Z,27.58
2023-03-02T10:19:17.217Z,28.19
2023-03-02T10:20:17.309Z,28.82
2023-03-02T10:21:17.386Z,29.53
2023-03-02T10:22:17.518Z,29.13
2023-03-02T10:23:17.556Z,29.12
2023-03-02T10:24:17.632Z,29.02
2023-03-02T10:25:17.725Z,29.14
2023-03-02T10:26:17.819Z,29.38
2023-03-02T10:27:17.939Z,30.40
2023-03-02T10:28:17.974Z,30.80
2023-03-02T10:29:18.065Z,30.50
2023-03-02T10:30:18.133Z,29.90
2023-03-02T10:31:18.305Z,30.01
2023-03-02T10:32:18.360Z,30.63
2023-03-02T10:33:18.379Z,31.38
2023-03-02T10:34:18.484Z,32.20
2023-03-02T10:35:18.631Z,32.30
2023-03-02T10:36:20.530Z,32.10
2023-03-02T10:37:18.782Z,32.42
2023-03-02T10:38:18.793Z,32.73
2023-03-02T10:39:18.842Z,34.05
2023-03-02T10:40:18.916Z,35.41
2023-03-02T10:41:19.006Z,36.24
2023-03-02T10:42:19.156Z,36.44
2023-03-02T10:43:19.192Z,36.24
2023-03-02T10:44:19.287Z,36.87
2023-03-02T10:45:19.361Z,36.58
2023-03-02T10:46:19.520Z,36.80
2023-03-02T10:47:20.265Z,37.41
2023-03-02T10:48:19.594Z,37.23
2023-03-02T10:49:21.003Z,37.56
2023-03-02T10:50:19.752Z,37.79
2023-03-02T10:51:19.843Z,38.31
2023-03-02T10:52:19.948Z,38.65
2023-03-02T10:53:19.992Z,39.78
2023-03-02T10:54:20.095Z,40.80
2023-03-02T10:55:20.218Z,40.88
2023-03-02T10:56:20.259Z,41.08
2023-03-02T10:57:20.349Z,40.88
2023-03-02T10:58:20.417Z,40.69
2023-03-02T10:59:20.448Z,42.26
2023-03-02T11:00:20.528Z,43.02
2023-03-02T11:01:20.610Z,43.73
2023-03-02T11:02:20.691Z,43.96
2023-03-02T11:03:20.747Z,43.76
2023-03-02T11:04:20.902Z,44.08
2023-03-02T11:05:20.907Z,44.41
2023-03-02T11:06:20.994Z,44.51
2023-03-02T11:07:21.070Z,42.97
2023-03-02T11:08:21.153Z,42.65
2023-03-02T11:09:21.211Z,42.26
2023-03-02T11:10:21.296Z,43.28
2023-03-02T11:11:21.524Z,42.85
2023-03-02T11:12:21.475Z,42.44
2023-03-02T11:13:21.531Z,42.26
2023-03-02T11:14:21.628Z,41.85
2023-03-02T11:15:21.691Z,42.07
2023-03-02T11:16:21.848Z,43.38
2023-03-02T11:17:21.846Z,44.41
2023-03-02T11:18:21.922Z,44.20
2023-03-02T11:19:21.975Z,43.10
2023-03-02T11:20:22.118Z,44.02
2023-03-02T11:21:22.135Z,44.64
2023-03-02T11:22:22.239Z,45.64
2023-03-02T11:23:22.315Z,44.61
2023-03-02T11:24:22.378Z,43.08
2023-03-02T11:25:22.436Z,44.61
2023-03-02T11:26:22.515Z,44.49
2023-03-02T11:27:22.649Z,43.88
2023-03-02T11:28:22.662Z,44.26
2023-03-02T11:29:22.922Z,44.37
2023-03-02T11:30:22.811Z,43.53
2023-03-02T11:31:22.908Z,43.14
2023-03-02T11:32:23.067Z,43.47
2023-03-02T11:33:23.052Z,43.55
2023-03-02T11:34:23.264Z,43.06
2023-03-02T11:35:23.214Z,41.93
2023-03-02T11:36:23.223Z,42.87
2023-03-02T11:37:23.342Z,43.20
2023-03-02T11:38:23.377Z,43.94
2023-03-02T11:39:23.427Z,43.12
2023-03-02T11:40:23.506Z,42.81
2023-03-02T11:41:23.561Z,44.17
2023-03-02T11:42:23.733Z,43.96
2023-03-02T11:43:23.717Z,44.17
2023-03-02T11:44:23.820Z,44.17
2023-03-02T11:45:23.924Z,43.63
2023-03-02T11:46:26.216Z,43.44
2023-03-02T11:47:24.176Z,43.43
2023-03-02T11:48:24.184Z,44.45
2023-03-02T11:49:24.213Z,45.47
2023-03-02T11:50:24.304Z,44.65
2023-03-02T11:51:24.369Z,43.61
2023-03-02T11:52:24.481Z,43.32
2023-03-02T11:53:24.581Z,43.73
2023-03-02T11:54:24.639Z,43.73
2023-03-02T11:55:24.716Z,44.02
2023-03-02T11:56:24.795Z,44.43
2023-03-02T11:57:24.871Z,46.27
2023-03-02T11:58:24.942Z,46.45
2023-03-02T11:59:27.565Z,46.48
2023-03-02T12:00:25.094Z,46.37
2023-03-02T12:01:25.152Z,47.31
2023-03-02T12:02:25.321Z,47.55
2023-03-02T12:03:25.295Z,47.56
2023-03-02T12:04:25.369Z,47.97
2023-03-02T12:05:25.432Z,48.90
2023-03-02T12:06:25.517Z,48.51
2023-03-02T12:07:25.570Z,47.38
2023-03-02T12:08:25.643Z,46.34
2023-03-02T12:09:25.807Z,47.36
2023-03-02T12:10:25.801Z,47.67
2023-03-02T12:11:25.881Z,46.31
2023-03-02T12:12:25.999Z,46.52
2023-03-02T12:13:26.062Z,46.21
2023-03-02T12:14:26.158Z,46.42
2023-03-02T12:15:26.242Z,46.21
2023-03-02T12:16:26.361Z,46.21
2023-03-02T12:17:26.420Z,46.30
2023-03-02T12:18:26.471Z,46.50
2023-03-02T12:19:26.549Z,45.68
2023-03-02T12:20:26.642Z,45.78
2023-03-02T12:21:26.677Z,45.78
2023-03-02T12:22:26.786Z,45.57
2023-03-02T12:23:26.831Z,45.68
2023-03-02T12:24:26.942Z,46.30
2023-03-02T12:25:27.006Z,45.57
2023-03-02T12:26:27.088Z,45.57
2023-03-02T12:27:27.209Z,45.78
2023-03-02T12:28:27.255Z,45.17
2023-03-02T12:29:27.326Z,45.27
2023-03-02T12:30:27.466Z,45.57
2023-03-02T12:31:27.605Z,44.96
2023-03-02T12:32:27.614Z,45.68
2023-03-02T12:33:27.619Z,44.96
2023-03-02T12:34:27.698Z,45.37
2023-03-02T12:35:27.800Z,45.86
2023-03-02T12:36:27.855Z,46.58
2023-03-02T12:37:27.931Z,46.17
2023-03-02T12:38:28.016Z,45.25
2023-03-02T12:39:28.065Z,44.73
2023-03-02T12:40:28.141Z,44.64
2023-03-02T12:41:28.194Z,45.76
2023-03-02T12:42:28.289Z,45.45
2023-03-02T12:43:28.351Z,45.33
2023-03-02T12:44:28.430Z,45.43
2023-03-02T12:45:28.546Z,44.92
2023-03-02T12:46:28.587Z,44.41
2023-03-02T12:47:29.394Z,44.32
2023-03-02T12:48:28.873Z,45.15
2023-03-02T12:49:28.793Z,45.43
2023-03-02T12:50:28.885Z,44.71
2023-03-02T12:51:28.965Z,45.43
2023-03-02T12:52:29.111Z,45.45
2023-03-02T12:53:29.072Z,45.25
2023-03-02T12:54:29.163Z,45.25
2023-03-02T12:55:29.212Z,44.51
2023-03-02T12:56:29.314Z,44.31
2023-03-02T12:57:29.377Z,44.23
2023-03-02T12:58:29.442Z,44.53
2023-03-02T12:59:29.501Z,45.45
2023-03-02T13:00:29.588Z,45.76
2023-03-02T13:01:29.677Z,45.53
2023-03-02T13:02:29.832Z,45.12
2023-03-02T13:03:29.794Z,44.73
2023-03-02T13:04:29.927Z,45.04
2023-03-02T13:05:29.955Z,45.65
2023-03-02T13:06:30.054Z,46.89
2023-03-02T13:07:30.122Z,47.30
2023-03-02T13:08:30.231Z,45.76
2023-03-02T13:09:30.262Z,46.17
2023-03-02T13:10:30.405Z,46.25
2023-03-02T13:11:30.428Z,46.35
2023-03-02T13:12:30.541Z,45.94
2023-03-02T13:13:30.688Z,46.04
2023-03-02T13:14:30.705Z,45.84
2023-03-02T13:15:30.730Z,45.94
2023-03-02T13:16:30.969Z,45.74
2023-03-02T13:17:30.967Z,46.15
2023-03-02T13:18:30.965Z,46.56
2023-03-02T13:19:31.021Z,46.45
2023-03-02T13:20:31.111Z,46.45
2023-03-02T13:21:31.256Z,45.74
2023-03-02T13:22:31.338Z,46.15
2023-03-02T13:23:31.341Z,46.97
2023-03-02T13:24:31.398Z,47.07
2023-03-02T13:25:31.475Z,46.56
2023-03-02T13:26:31.937Z,46.53
2023-03-02T13:27:31.714Z,46.44
2023-03-02T13:28:31.677Z,46.33
2023-03-02T13:29:31.783Z,47.17
2023-03-02T13:30:31.927Z,46.94
2023-03-02T13:31:32.083Z,45.53
2023-03-02T13:32:32.092Z,45.53
2023-03-02T13:33:32.025Z,45.94
2023-03-02T13:34:32.124Z,46.94
2023-03-02T13:35:32.221Z,47.05
2023-03-02T13:36:32.654Z,46.74
2023-03-02T13:37:32.423Z,46.12
2023-03-02T13:38:32.449Z,46.33
2023-03-02T13:39:32.509Z,46.44
2023-03-02T13:40:32.596Z,46.33
2023-03-02T13:41:32.654Z,46.33
2023-03-02T13:42:32.751Z,46.74
2023-03-02T13:43:32.803Z,46.33
2023-03-02T13:44:32.902Z,47.25
2023-03-02T13:45:32.940Z,47.85
2023-03-02T13:46:33.440Z,47.94
2023-03-02T13:47:33.147Z,47.23
2023-03-02T13:48:33.161Z,46.62
2023-03-02T13:49:33.221Z,45.08
2023-03-02T13:50:33.334Z,44.17
2023-03-02T13:51:33.382Z,44.78
2023-03-02T13:52:33.478Z,46.00
2023-03-02T13:53:33.531Z,46.41
2023-03-02T13:54:33.613Z,47.05
2023-03-02T13:55:33.667Z,47.66
2023-03-02T13:56:34.143Z,47.45
2023-03-02T13:57:33.840Z,46.84
2023-03-02T13:58:33.882Z,47.05
2023-03-02T13:59:33.980Z,46.64
2023-03-02T14:00:34.030Z,46.53
2023-03-02T14:01:34.097Z,46.53
2023-03-02T14:02:34.210Z,46.74
2023-03-02T14:03:34.264Z,46.64
2023-03-02T14:04:34.424Z,46.92
2023-03-02T14:05:34.462Z,46.51
2023-03-02T14:06:34.796Z,46.92
2023-03-02T14:07:34.581Z,46.72
2023-03-02T14:08:34.661Z,46.23
2023-03-02T14:09:34.721Z,45.72
2023-03-02T14:10:34.800Z,45.72
2023-03-02T14:11:34.892Z,46.12
2023-03-02T14:12:34.962Z,45.92
2023-03-02T14:13:35.026Z,45.82
2023-03-02T14:14:35.151Z,46.00
2023-03-02T14:15:35.213Z,45.80
2023-03-02T14:16:35.274Z,45.51
2023-03-02T14:17:35.350Z,45.51
2023-03-02T14:18:35.421Z,45.82
2023-03-02T14:19:35.469Z,46.44
2023-03-02T14:20:35.546Z,46.94
2023-03-02T14:21:36.085Z,46.44
2023-03-02T14:22:35.734Z,47.25
2023-03-02T14:23:35.802Z,47.66
2023-03-02T14:24:35.897Z,46.44
2023-03-02T14:25:35.949Z,46.23
2023-03-02T14:26:36.047Z,46.03
2023-03-02T14:27:36.125Z,46.23
2023-03-02T14:28:36.222Z,46.74
2023-03-02T14:29:36.269Z,46.84
2023-03-02T14:30:36.426Z,46.84
2023-03-02T14:31:36.563Z,46.64
2023-03-02T14:32:36.498Z,46.74
2023-03-02T14:33:36.566Z,46.33
2023-03-02T14:34:37.276Z,46.12
2023-03-02T14:35:36.825Z,46.76
2023-03-02T14:36:36.812Z,46.76
2023-03-02T14:37:36.909Z,46.56
2023-03-02T14:38:36.959Z,46.56
2023-03-02T14:39:37.044Z,47.07
2023-03-02T14:40:37.101Z,46.97
2023-03-02T14:41:43.964Z,46.23
2023-03-02T14:42:37.323Z,46.44
2023-03-02T14:43:37.348Z,46.12
2023-03-02T14:44:37.429Z,46.12
2023-03-02T14:45:37.488Z,46.64
2023-03-02T14:46:37.593Z,47.35
2023-03-02T14:47:37.626Z,47.35
2023-03-02T14:48:37.685Z,46.64
2023-03-02T14:49:37.771Z,45.72
2023-03-02T14:50:37.819Z,45.61
2023-03-02T14:51:37.904Z,47.05
2023-03-02T14:52:37.992Z,47.38
2023-03-02T14:53:38.037Z,47.66
2023-03-02T14:54:38.099Z,47.76
2023-03-02T14:55:38.187Z,48.27
2023-03-02T14:56:38.269Z,48.27
2023-03-02T14:57:38.390Z,47.86
2023-03-02T14:58:38.408Z,48.07
2023-03-02T14:59:38.508Z,47.45
2023-03-02T15:00:38.587Z,46.33
2023-03-02T15:01:38.790Z,45.72
2023-03-02T15:02:38.905Z,45.92
2023-03-02T15:03:38.859Z,46.33
2023-03-02T15:04:38.962Z,47.35
2023-03-02T15:05:40.693Z,47.66
2023-03-02T15:06:39.060Z,48.17
2023-03-02T15:07:39.189Z,48.38
2023-03-02T15:08:39.202Z,47.76
2023-03-02T15:09:39.295Z,46.94
2023-03-02T15:10:39.348Z,45.92
2023-03-02T15:11:39.432Z,46.12
2023-03-02T15:12:39.509Z,46.84
2023-03-02T15:13:39.575Z,47.25
2023-03-02T15:14:39.636Z,47.56
2023-03-02T15:15:39.718Z,47.66
2023-03-02T15:16:39.772Z,47.97
2023-03-02T15:17:39.876Z,48.27
2023-03-02T15:18:39.930Z,48.48
2023-03-02T15:19:40.032Z,48.48
2023-03-02T15:20:40.105Z,47.86
2023-03-02T15:21:40.190Z,48.07
2023-03-02T15:22:40.249Z,48.48
2023-03-02T15:23:40.327Z,49.19
2023-03-02T15:24:40.384Z,49.60
2023-03-02T15:25:40.486Z,49.60
2023-03-02T15:26:40.539Z,49.60
2023-03-02T15:27:40.647Z,49.40
2023-03-02T15:28:40.689Z,49.40
2023-03-02T15:29:40.778Z,49.60
2023-03-02T15:30:41.344Z,49.93
2023-03-02T15:31:40.943Z,50.24
2023-03-02T15:32:40.996Z,50.24
2023-03-02T15:33:41.071Z,50.24
2023-03-02T15:34:41.134Z,50.14
2023-03-02T15:35:41.253Z,49.52
2023-03-02T15:36:41.270Z,49.42
2023-03-02T15:37:41.371Z,49.42
2023-03-02T15:38:41.486Z,49.32
2023-03-02T15:39:41.516Z,49.63
2023-03-02T15:40:41.565Z,49.63
2023-03-02T15:41:41.657Z,49.52
2023-03-02T15:42:41.744Z,49.42
2023-03-02T15:43:41.785Z,49.32
2023-03-02T15:44:41.847Z,49.22
2023-03-02T15:45:41.938Z,49.52
2023-03-02T15:46:42.018Z,49.42
2023-03-02T15:47:42.100Z,49.63
2023-03-02T15:48:42.158Z,49.93
2023-03-02T15:49:42.257Z,50.24
2023-03-02T15:50:42.316Z,50.37
2023-03-02T15:51:42.445Z,50.26
2023-03-02T15:52:42.486Z,50.26
2023-03-02T15:53:42.550Z,50.67
2023-03-02T15:54:42.610Z,50.98
2023-03-02T15:55:42.699Z,50.98
2023-03-02T15:56:44.493Z,50.98
2023-03-02T15:57:42.830Z,51.18
2023-03-02T15:58:42.883Z,51.70
2023-03-02T15:59:42.986Z,51.90
2023-03-02T16:00:43.086Z,52.21
2023-03-02T16:01:43.153Z,52.23
2023-03-02T16:02:43.256Z,52.34
2023-03-02T16:03:43.306Z,52.64
2023-03-02T16:04:43.367Z,52.44
2023-03-02T16:05:43.456Z,52.44
2023-03-02T16:06:43.515Z,52.64
2023-03-02T16:07:43.623Z,52.95
2023-03-02T16:08:43.679Z,53.26
2023-03-02T16:09:44.340Z,53.36
2023-03-02T16:10:43.890Z,53.67
2023-03-02T16:11:43.954Z,53.77
2023-03-02T16:12:44.064Z,53.87
2023-03-02T16:13:44.085Z,53.97
2023-03-02T16:14:44.146Z,53.97
2023-03-02T16:15:44.250Z,54.08
2023-03-02T16:16:44.501Z,54.18
2023-03-02T16:17:44.439Z,54.31
2023-03-02T16:18:44.476Z,54.00
2023-03-02T16:19:44.559Z,53.80
2023-03-02T16:20:44.625Z,53.39
2023-03-02T16:21:44.676Z,53.49
2023-03-02T16:22:44.852Z,53.69
2023-03-02T16:23:44.868Z,54.02
2023-03-02T16:24:44.904Z,54.02
2023-03-02T16:25:44.978Z,54.02
2023-03-02T16:26:45.055Z,54.02
2023-03-02T16:27:45.165Z,53.92
2023-03-02T16:28:45.214Z,53.72
2023-03-02T16:29:45.280Z,53.92
2023-03-02T16:30:45.369Z,53.61
2023-03-02T16:31:45.457Z,53.82
2023-03-02T16:32:45.639Z,53.92
2023-03-02T16:33:45.643Z,54.05
2023-03-02T16:34:45.720Z,54.15
2023-03-02T16:35:45.800Z,54.36
2023-03-02T16:36:45.865Z,54.46
2023-03-02T16:37:45.967Z,54.97
2023-03-02T16:38:46.004Z,55.10
2023-03-02T16:39:46.092Z,55.10
2023-03-02T16:40:46.160Z,55.00
2023-03-02T16:41:46.319Z,55.00
2023-03-02T16:42:46.321Z,55.30
2023-03-02T16:43:46.416Z,55.30
2023-03-02T16:44:46.491Z,55.41
2023-03-02T16:45:46.579Z,55.41
2023-03-02T16:46:46.680Z,55.74
2023-03-02T16:47:46.739Z,55.64
2023-03-02T16:48:46.785Z,55.64
2023-03-02T16:49:46.901Z,55.64
2023-03-02T16:50:46.980Z,55.74
2023-03-02T16:51:47.084Z,55.77
2023-03-02T16:52:47.168Z,55.98
2023-03-02T16:53:47.241Z,56.18
2023-03-02T16:54:47.322Z,56.18
2023-03-02T16:55:47.412Z,56.08
2023-03-02T16:56:47.819Z,55.98
2023-03-02T16:57:47.620Z,56.10
2023-03-02T16:58:47.675Z,56.21
2023-03-02T16:59:47.790Z,56.21
2023-03-02T17:00:47.875Z,56.51
2023-03-02T17:01:47.988Z,56.93
2023-03-02T17:02:48.046Z,57.06
2023-03-02T17:03:48.175Z,57.26
2023-03-02T17:04:48.188Z,57.26
2023-03-02T17:05:48.261Z,57.36
2023-03-02T17:07:03.645Z,57.57
2023-03-02T17:07:48.460Z,57.90
2023-03-02T17:08:48.507Z,58.21
2023-03-02T17:09:48.602Z,58.11
2023-03-02T17:10:48.670Z,58.11
2023-03-02T17:11:48.738Z,58.14
2023-03-02T17:12:48.837Z,58.34
2023-03-02T17:13:48.913Z,58.65
2023-03-02T17:14:48.984Z,58.96
2023-03-02T17:15:49.084Z,59.17
2023-03-02T17:16:49.163Z,59.50
2023-03-02T17:17:49.270Z,59.61
2023-03-02T17:18:49.369Z,59.70
2023-03-02T17:19:49.409Z,59.91
2023-03-02T17:20:49.486Z,60.05
2023-03-02T17:21:49.602Z,59.94
2023-03-02T17:22:49.682Z,60.05
2023-03-02T17:23:49.776Z,60.05
2023-03-02T17:24:49.852Z,60.25
2023-03-02T17:25:49.924Z,60.05
2023-03-02T17:26:49.993Z,60.17
2023-03-02T17:27:50.105Z,60.07
2023-03-02T17:28:50.150Z,60.07
2023-03-02T17:29:50.227Z,60.07
2023-03-02T17:30:50.357Z,59.86
2023-03-02T17:31:50.372Z,60.28
2023-03-02T17:32:50.474Z,60.31
2023-03-02T17:33:50.554Z,60.21
2023-03-02T17:34:50.613Z,60.21
2023-03-02T17:35:50.682Z,60.31
2023-03-02T17:36:50.755Z,60.21
2023-03-02T17:37:50.917Z,60.54
2023-03-02T17:38:50.892Z,60.64
2023-03-02T17:39:50.977Z,60.64
2023-03-02T17:40:51.054Z,60.64
2023-03-02T17:41:51.129Z,61.05
2023-03-02T17:42:54.578Z,61.40
2023-03-02T17:43:51.292Z,61.70
2023-03-02T17:44:51.374Z,61.70
2023-03-02T17:45:51.516Z,61.91
2023-03-02T17:46:51.536Z,62.12
2023-03-02T17:47:51.652Z,62.35
2023-03-02T17:48:53.989Z,62.25
2023-03-02T17:49:51.798Z,62.46
2023-03-02T17:50:51.891Z,62.76
2023-03-02T17:51:51.986Z,62.97
2023-03-02T17:52:52.112Z,62.97
2023-03-02T17:53:52.153Z,62.79
2023-03-02T17:54:54.089Z,62.79
2023-03-02T17:55:52.296Z,62.59
2023-03-02T17:56:52.378Z,62.27
2023-03-02T17:57:52.467Z,62.27
2023-03-02T17:58:52.508Z,62.07
2023-03-02T17:59:52.615Z,62.27
2023-03-02T18:00:54.021Z,62.27
2023-03-02T18:01:52.777Z,61.97
2023-03-02T18:02:52.937Z,61.87
2023-03-02T18:03:52.970Z,61.76
2023-03-02T18:04:53.018Z,61.55
2023-03-02T18:05:53.088Z,61.35
2023-03-02T18:06:54.159Z,61.24
2023-03-02T18:07:53.285Z,61.04
2023-03-02T18:08:53.329Z,60.75
2023-03-02T18:09:53.420Z,60.34
2023-03-02T18:10:53.497Z,59.83
2023-03-02T18:11:53.611Z,59.52
2023-03-02T18:12:54.466Z,59.00
2023-03-02T18:13:53.778Z,58.35
2023-03-02T18:14:53.862Z,57.73
2023-03-02T18:15:54.021Z,56.81
2023-03-02T18:16:54.023Z,56.70
2023-03-02T18:17:54.118Z,56.16
2023-03-02T18:18:54.238Z,56.16
2023-03-02T18:19:54.252Z,55.95
2023-03-02T18:20:54.328Z,55.41
2023-03-02T18:21:54.426Z,55.41
2023-03-02T18:22:54.522Z,55.20
2023-03-02T18:23:54.603Z,55.10
2023-03-02T18:24:54.672Z,54.77
2023-03-02T18:25:54.756Z,54.66
2023-03-02T18:26:54.842Z,54.69
2023-03-02T18:27:55.028Z,54.79
2023-03-02T18:28:55.020Z,54.69
2023-03-02T18:29:55.100Z,54.48
2023-03-02T18:30:55.233Z,54.56
2023-03-02T18:31:55.308Z,54.38
2023-03-02T18:32:55.383Z,54.35
2023-03-02T18:33:55.406Z,54.46
2023-03-02T18:34:55.487Z,54.35
2023-03-02T18:35:55.553Z,54.66
2023-03-02T18:36:55.623Z,54.48
2023-03-02T18:37:55.778Z,54.66
2023-03-02T18:38:55.805Z,54.46
2023-03-02T18:39:55.864Z,54.46
2023-03-02T18:40:55.942Z,54.86
2023-03-02T18:41:56.012Z,54.56
2023-03-02T18:42:56.115Z,54.46
2023-03-02T18:43:56.179Z,54.46
2023-03-02T18:44:56.258Z,54.66
2023-03-02T18:45:56.319Z,54.66
2023-03-02T18:46:56.462Z,54.97
2023-03-02T18:47:56.508Z,54.77
2023-03-02T18:48:56.555Z,54.90
2023-03-02T18:49:56.625Z,55.20
2023-03-02T18:50:56.703Z,55.30
2023-03-02T18:51:56.979Z,55.30
2023-03-02T18:52:56.869Z,55.41
2023-03-02T18:53:56.926Z,55.62
2023-03-02T18:54:57.040Z,55.51
2023-03-02T18:55:57.076Z,55.62
2023-03-02T18:56:57.159Z,55.62
2023-03-02T18:57:57.247Z,55.82
2023-03-02T18:58:57.346Z,55.93
2023-03-02T18:59:57.393Z,55.95
2023-03-02T19:00:57.499Z,56.05
2023-03-02T19:01:57.693Z,56.05
2023-03-02T19:02:57.636Z,56.26
2023-03-02T19:03:57.718Z,56.26
2023-03-02T19:04:57.799Z,56.26
2023-03-02T19:05:58.314Z,56.46
2023-03-02T19:06:57.965Z,56.46
2023-03-02T19:07:58.066Z,56.37
2023-03-02T19:08:58.130Z,56.46
2023-03-02T19:09:58.207Z,56.57
2023-03-02T19:10:58.281Z,56.57
2023-03-02T19:11:58.358Z,56.77
2023-03-02T19:12:58.482Z,56.77
2023-03-02T19:13:58.523Z,56.88
2023-03-02T19:14:58.630Z,56.88
2023-03-02T19:15:58.761Z,57.09
2023-03-02T19:16:58.794Z,57.09
2023-03-02T19:17:58.899Z,57.19
2023-03-02T19:18:59.005Z,57.40
2023-03-02T19:19:59.018Z,57.53
2023-03-02T19:20:59.125Z,57.84
2023-03-02T19:21:59.204Z,57.84
2023-03-02T19:22:59.321Z,57.94
2023-03-02T19:23:59.375Z,58.25
2023-03-02T19:24:59.440Z,58.25
2023-03-02T19:25:59.534Z,58.35
2023-03-02T19:26:59.621Z,58.45
2023-03-02T19:27:59.714Z,58.76
2023-03-02T19:28:59.789Z,58.79
2023-03-02T19:29:59.872Z,58.89
2023-03-02T19:30:59.939Z,59.10
2023-03-02T19:32:00.156Z,59.34
2023-03-02T19:33:00.129Z,59.44
2023-03-02T19:34:00.180Z,59.34
2023-03-02T19:35:00.255Z,59.41
2023-03-02T19:36:00.430Z,59.41
2023-03-02T19:37:00.400Z,59.41
2023-03-02T19:38:00.538Z,59.52
2023-03-02T19:39:00.553Z,59.41
2023-03-02T19:40:00.628Z,59.52
2023-03-02T19:41:00.694Z,59.52
2023-03-02T19:42:00.779Z,59.62
2023-03-02T19:43:00.876Z,59.72
2023-03-02T19:44:00.909Z,59.72
2023-03-02T19:45:00.997Z,59.75
2023-03-02T19:46:01.146Z,59.93
2023-03-02T19:47:01.177Z,59.83
2023-03-02T19:48:01.267Z,59.85
2023-03-02T19:49:01.565Z,59.85
2023-03-02T19:50:01.411Z,60.03
2023-03-02T19:51:01.481Z,59.93
2023-03-02T19:52:01.563Z,59.83
2023-03-02T19:53:01.691Z,59.93
2023-03-02T19:54:04.054Z,60.03
2023-03-02T19:55:01.845Z,60.24
2023-03-02T19:56:01.919Z,60.24
2023-03-02T19:57:02.018Z,60.44
2023-03-02T19:58:02.143Z,60.89
2023-03-02T19:59:02.218Z,61.10
2023-03-02T20:00:02.411Z,61.40
2023-03-02T20:01:02.370Z,61.33
2023-03-02T20:02:02.459Z,61.74
2023-03-02T20:03:02.526Z,62.08
2023-03-02T20:04:02.573Z,62.39
2023-03-02T20:05:02.666Z,62.49
2023-03-02T20:06:02.748Z,63.04
2023-03-02T20:07:02.823Z,63.35
2023-03-02T20:08:02.927Z,63.59
2023-03-02T20:09:03.001Z,64.00
2023-03-02T20:10:03.082Z,64.42
2023-03-02T20:11:03.159Z,64.65
2023-03-02T20:12:03.209Z,64.86
2023-03-02T20:13:03.312Z,64.97
2023-03-02T20:14:03.352Z,65.10
2023-03-02T20:15:03.430Z,65.20
2023-03-02T20:16:03.504Z,65.41
2023-03-02T20:17:03.578Z,65.55
2023-03-02T20:18:03.665Z,65.86
2023-03-02T20:19:03.738Z,66.06
2023-03-02T20:20:03.825Z,66.27
2023-03-02T20:21:03.921Z,66.47
2023-03-02T20:22:04.035Z,66.89
2023-03-02T20:23:04.115Z,67.03
2023-03-02T20:24:04.167Z,67.13
2023-03-02T20:25:04.240Z,67.44
2023-03-02T20:26:04.325Z,67.44
2023-03-02T20:27:04.403Z,67.76
2023-03-02T20:28:04.484Z,67.99
2023-03-02T20:29:04.564Z,68.10
2023-03-02T20:30:04.642Z,68.10
2023-03-02T20:31:04.761Z,68.20
2023-03-02T20:32:04.827Z,68.41
2023-03-02T20:33:04.880Z,68.51
2023-03-02T20:34:04.925Z,68.85
2023-03-02T20:35:05.020Z,69.06
2023-03-02T20:36:05.093Z,69.27
2023-03-02T20:37:05.193Z,69.48
2023-03-02T20:38:05.341Z,69.58
2023-03-02T20:39:05.378Z,69.79
2023-03-02T20:40:05.441Z,69.92
2023-03-02T20:41:05.536Z,69.92
2023-03-02T20:42:05.636Z,70.13
2023-03-02T20:43:05.721Z,70.34
2023-03-02T20:44:05.809Z,70.44
2023-03-02T20:45:05.905Z,70.89
2023-03-02T20:46:06.029Z,71.10
2023-03-02T20:47:06.071Z,71.10
2023-03-02T20:48:06.146Z,71.31
2023-03-02T20:49:06.200Z,71.41
2023-03-02T20:50:06.272Z,71.65
2023-03-02T20:51:06.343Z,71.86
2023-03-02T20:52:06.441Z,71.97
2023-03-02T20:53:06.513Z,71.86
2023-03-02T20:54:06.595Z,71.75
2023-03-02T20:55:06.665Z,71.86
2023-03-02T20:56:06.743Z,71.89
2023-03-02T20:57:06.810Z,71.79
2023-03-02T20:58:06.930Z,71.89
2023-03-02T20:59:06.972Z,72.10
2023-03-02T21:00:07.046Z,72.20
2023-03-02T21:01:07.165Z,72.31
2023-03-02T21:02:07.198Z,72.45
2023-03-02T21:03:07.292Z,72.66
2023-03-02T21:04:07.393Z,72.76
2023-03-02T21:05:07.493Z,72.86
2023-03-02T21:06:07.552Z,72.86
2023-03-02T21:07:07.625Z,72.97
2023-03-02T21:08:07.718Z,73.18
2023-03-02T21:09:07.792Z,73.80
2023-03-02T21:10:07.862Z,73.80
2023-03-02T21:11:07.926Z,73.80
2023-03-02T21:12:08.013Z,73.69
2023-03-02T21:13:08.115Z,73.59
2023-03-02T21:14:08.189Z,73.38
2023-03-02T21:15:08.271Z,73.07
2023-03-02T21:16:08.370Z,72.97
2023-03-02T21:17:08.414Z,73.32
2023-03-02T21:18:08.511Z,73.32
2023-03-02T21:19:08.530Z,73.63
2023-03-02T21:20:08.640Z,73.94
2023-03-02T21:21:08.717Z,73.83
2023-03-02T21:22:08.807Z,74.29
2023-03-02T21:23:08.906Z,74.70
2023-03-02T21:24:08.992Z,74.91
2023-03-02T21:25:09.083Z,74.91
2023-03-02T21:26:09.166Z,74.80
2023-03-02T21:27:09.245Z,74.80
2023-03-02T21:28:09.341Z,75.01
2023-03-02T21:29:09.442Z,74.91
2023-03-02T21:30:09.518Z,75.01